createdAt,value
2023-04-17T00:01:23.952Z,9.63
2023-04-17T00:04:27.205Z,9.65
2023-04-17T00:07:30.064Z,9.59
2023-04-17T00:10:32.818Z,9.59
2023-04-17T00:13:35.661Z,9.71
2023-04-17T00:16:38.662Z,9.58
2023-04-17T00:19:41.576Z,9.37
2023-04-17T00:22:44.525Z,9.20
2023-04-17T00:25:47.267Z,9.26
2023-04-17T00:28:50.827Z,9.29
2023-04-17T00:31:53.881Z,9.24
2023-04-17T00:34:56.625Z,9.36
2023-04-17T00:37:59.491Z,9.45
2023-04-17T00:41:03.004Z,9.58
2023-04-17T00:44:05.744Z,9.66
2023-04-17T00:47:12.021Z,9.71
2023-04-17T00:50:15.167Z,9.72
2023-04-17T00:53:18.283Z,9.68
2023-04-17T00:56:21.874Z,9.70
2023-04-17T00:59:25.716Z,9.63
2023-04-17T01:02:29.402Z,9.69
2023-04-17T01:05:32.358Z,9.53
2023-04-17T01:08:44.748Z,9.51
2023-04-17T01:11:47.614Z,9.58
2023-04-17T01:14:54.307Z,9.50
2023-04-17T01:17:57.538Z,9.55
2023-04-17T01:21:00.245Z,9.53
2023-04-17T01:24:03.734Z,9.54
2023-04-17T01:27:07.430Z,9.61
2023-04-17T01:30:12.063Z,9.64
2023-04-17T01:33:24.569Z,9.68
2023-04-17T01:36:28.012Z,9.63
2023-04-17T01:39:30.868Z,9.70
2023-04-17T01:42:34.789Z,9.70
2023-04-17T01:45:37.572Z,9.58
2023-04-17T01:48:40.653Z,9.66
2023-04-17T01:51:43.539Z,9.57
2023-04-17T01:54:46.374Z,9.65
2023-04-17T01:57:49.842Z,9.56
2023-04-17T02:00:52.690Z,9.44
2023-04-17T02:03:55.931Z,9.23
2023-04-17T02:06:58.678Z,9.08
2023-04-17T02:10:01.620Z,8.97
2023-04-17T02:13:04.469Z,8.88
2023-04-17T02:16:08.003Z,8.72
2023-04-17T02:19:11.012Z,8.89
2023-04-17T02:22:13.944Z,8.82
2023-04-17T02:25:16.882Z,8.87
2023-04-17T02:28:19.796Z,8.94
2023-04-17T02:31:22.448Z,8.83
2023-04-17T02:34:25.168Z,8.73
2023-04-17T02:37:29.840Z,8.76
2023-04-17T02:40:32.900Z,8.83
2023-04-17T02:43:37.761Z,8.93
2023-04-17T02:46:40.444Z,8.84
2023-04-17T02:49:45.070Z,8.79
2023-04-17T02:52:47.736Z,8.85
2023-04-17T02:55:50.517Z,8.81
2023-04-17T02:58:56.431Z,8.76
2023-04-17T03:01:59.991Z,8.70
2023-04-17T03:05:04.480Z,8.67
2023-04-17T03:08:07.546Z,8.73
2023-04-17T03:11:18.730Z,8.67
2023-04-17T03:14:21.492Z,8.59
2023-04-17T03:17:24.320Z,8.62
2023-04-17T03:20:27.557Z,8.57
2023-04-17T03:23:31.053Z,8.54
2023-04-17T03:26:33.739Z,8.59
2023-04-17T03:29:42.116Z,8.73
2023-04-17T03:32:45.463Z,8.64
2023-04-17T03:35:48.165Z,8.68
2023-04-17T03:38:51.656Z,8.51
2023-04-17T03:41:54.527Z,8.48
2023-04-17T03:44:57.323Z,8.45
2023-04-17T03:48:01.678Z,8.42
2023-04-17T03:51:07.315Z,8.49
2023-04-17T03:54:11.600Z,8.52
2023-04-17T03:57:16.455Z,8.52
2023-04-17T04:00:20.543Z,8.55
2023-04-17T04:03:27.671Z,8.34
2023-04-17T04:06:31.177Z,8.42
2023-04-17T04:09:35.299Z,8.41
2023-04-17T04:12:39.961Z,8.45
2023-04-17T04:15:42.727Z,8.47
2023-04-17T04:18:46.252Z,8.43
2023-04-17T04:21:51.286Z,8.46
2023-04-17T04:24:54.452Z,8.42
2023-04-17T04:28:04.091Z,8.19
2023-04-17T04:31:07.187Z,8.30
2023-04-17T04:34:17.345Z,8.50
2023-04-17T04:37:22.299Z,8.83
2023-04-17T04:40:27.215Z,9.61
2023-04-17T04:43:30.321Z,9.85
2023-04-17T04:46:33.489Z,8.84
2023-04-17T04:49:37.355Z,8.75
2023-04-17T04:52:40.210Z,8.32
2023-04-17T04:55:54.809Z,8.18
2023-04-17T04:58:59.189Z,8.09
2023-04-17T05:02:02.868Z,8.25
2023-04-17T05:05:07.960Z,8.10
2023-04-17T05:08:10.756Z,8.34
2023-04-17T05:11:15.206Z,8.37
2023-04-17T05:14:18.645Z,8.36
2023-04-17T05:17:21.513Z,8.75
2023-04-17T05:20:26.882Z,9.11
2023-04-17T05:23:33.064Z,9.24
2023-04-17T05:26:35.909Z,9.13
2023-04-17T05:29:40.141Z,9.51
2023-04-17T05:32:43.850Z,9.74
2023-04-17T05:36:06.903Z,10.02
2023-04-17T05:39:16.852Z,10.41
2023-04-17T05:42:19.757Z,10.57
2023-04-17T05:45:25.398Z,10.98
2023-04-17T05:48:29.277Z,11.48
2023-04-17T05:51:32.373Z,11.74
2023-04-17T05:54:35.340Z,11.78
2023-04-17T05:57:38.471Z,11.86
2023-04-17T06:00:42.650Z,12.03
2023-04-17T06:03:49.739Z,12.13
2023-04-17T06:06:57.646Z,12.32
2023-04-17T06:10:01.049Z,12.53
2023-04-17T06:13:04.023Z,12.84
2023-04-17T06:16:09.000Z,12.98
2023-04-17T06:19:11.992Z,12.82
2023-04-17T06:22:15.083Z,13.10
2023-04-17T06:25:18.777Z,13.02
2023-04-17T06:28:21.992Z,13.30
2023-04-17T06:31:28.135Z,13.32
2023-04-17T06:34:30.950Z,13.53
2023-04-17T06:37:33.913Z,13.41
2023-04-17T06:40:36.908Z,13.34
2023-04-17T06:43:42.276Z,13.42
2023-04-17T06:46:55.305Z,13.28
2023-04-17T06:50:00.214Z,12.99
2023-04-17T06:53:02.937Z,13.35
2023-04-17T06:56:06.164Z,13.42
2023-04-17T06:59:09.901Z,13.39
2023-04-17T07:02:13.007Z,13.34
2023-04-17T07:05:16.197Z,13.37
2023-04-17T07:08:22.680Z,13.51
2023-04-17T07:11:25.670Z,13.76
2023-04-17T07:14:28.465Z,14.00
2023-04-17T07:17:31.700Z,13.90
2023-04-17T07:20:34.366Z,14.38
2023-04-17T07:23:37.637Z,14.38
2023-04-17T07:26:40.780Z,13.66
2023-04-17T07:29:43.752Z,13.88
2023-04-17T07:32:47.145Z,14.28
2023-04-17T07:35:49.878Z,14.28
2023-04-17T07:38:52.635Z,14.16
2023-04-17T07:41:55.308Z,14.62
2023-04-17T07:44:58.081Z,14.55
2023-04-17T07:48:00.743Z,14.52
2023-04-17T07:51:03.553Z,14.73
2023-04-17T07:54:06.274Z,14.38
2023-04-17T07:57:09.089Z,14.37
2023-04-17T08:00:14.505Z,14.31
2023-04-17T08:03:18.292Z,14.89
2023-04-17T08:06:21.331Z,15.19
2023-04-17T08:09:24.050Z,14.77
2023-04-17T08:12:27.159Z,15.32
2023-04-17T08:15:29.964Z,15.45
2023-04-17T08:18:33.069Z,15.18
2023-04-17T08:21:35.732Z,15.88
2023-04-17T08:24:41.067Z,15.57
2023-04-17T08:27:43.925Z,16.30
2023-04-17T08:30:46.767Z,16.31
2023-04-17T08:33:51.294Z,16.55
2023-04-17T08:36:57.792Z,16.73
2023-04-17T08:40:00.840Z,16.98
2023-04-17T08:43:07.594Z,16.46
2023-04-17T08:46:10.855Z,16.41
2023-04-17T08:49:14.033Z,16.46
2023-04-17T08:52:17.275Z,16.92
2023-04-17T08:55:22.835Z,16.38
2023-04-17T08:58:28.695Z,16.38
2023-04-17T09:01:31.757Z,16.37
2023-04-17T09:04:42.677Z,16.21
2023-04-17T09:07:45.900Z,15.88
2023-04-17T09:10:53.146Z,16.03
2023-04-17T09:13:56.050Z,16.60
2023-04-17T09:16:59.116Z,16.85
2023-04-17T09:20:04.316Z,17.27
2023-04-17T09:23:07.105Z,16.98
2023-04-17T09:26:12.468Z,16.37
2023-04-17T09:29:16.167Z,16.50
2023-04-17T09:32:19.433Z,16.95
2023-04-17T09:35:28.253Z,16.99
2023-04-17T09:38:38.629Z,17.19
2023-04-17T09:41:42.161Z,17.06
2023-04-17T09:44:45.492Z,16.74
2023-04-17T09:47:48.799Z,16.57
2023-04-17T09:50:51.816Z,16.71
2023-04-17T09:53:54.811Z,17.34
2023-04-17T09:56:59.183Z,17.68
2023-04-17T10:00:05.364Z,17.34
2023-04-17T10:03:09.527Z,18.05
2023-04-17T10:06:13.010Z,17.86
2023-04-17T10:09:16.130Z,17.46
2023-04-17T10:12:19.823Z,16.93
2023-04-17T10:15:24.084Z,17.75
2023-04-17T10:18:28.322Z,18.44
2023-04-17T10:21:31.525Z,17.84
2023-04-17T10:24:34.359Z,17.39
2023-04-17T10:27:37.710Z,17.55
2023-04-17T10:30:54.977Z,17.92
2023-04-17T10:33:58.471Z,18.21
2023-04-17T10:37:01.866Z,18.43
2023-04-17T10:40:11.054Z,18.32
2023-04-17T10:43:18.414Z,18.49
2023-04-17T10:46:26.521Z,18.65
2023-04-17T10:49:29.481Z,18.99
2023-04-17T10:52:42.092Z,19.30
2023-04-17T10:55:50.965Z,18.75
2023-04-17T10:58:59.723Z,18.47
2023-04-17T11:02:05.105Z,18.99
2023-04-17T11:05:08.281Z,19.98
2023-04-17T11:08:12.158Z,19.01
2023-04-17T11:11:23.556Z,18.04
2023-04-17T11:14:33.491Z,17.48
2023-04-17T11:17:46.154Z,17.15
2023-04-17T11:20:51.827Z,17.02
2023-04-17T11:23:54.699Z,16.86
2023-04-17T11:27:04.151Z,16.61
2023-04-17T11:30:08.438Z,17.26
2023-04-17T11:33:13.228Z,17.81
2023-04-17T11:36:16.751Z,17.18
2023-04-17T11:39:21.710Z,17.61
2023-04-17T11:42:28.221Z,17.81
2023-04-17T11:45:32.912Z,17.94
2023-04-17T11:48:35.973Z,17.31
2023-04-17T11:51:38.800Z,17.45
2023-04-17T11:54:42.020Z,17.71
2023-04-17T11:57:44.864Z,17.93
2023-04-17T12:01:05.015Z,17.97
2023-04-17T12:04:20.503Z,17.84
2023-04-17T12:07:26.886Z,17.06
2023-04-17T12:10:43.403Z,16.75
2023-04-17T12:13:46.549Z,16.76
2023-04-17T12:16:50.896Z,16.80
2023-04-17T12:19:54.098Z,16.75
2023-04-17T12:22:57.120Z,17.58
2023-04-17T12:25:59.821Z,17.77
2023-04-17T12:29:02.881Z,17.00
2023-04-17T12:32:06.113Z,17.12
2023-04-17T12:35:09.365Z,17.46
2023-04-17T12:38:12.096Z,17.47
2023-04-17T12:41:14.913Z,16.88
2023-04-17T12:44:17.796Z,17.38
2023-04-17T12:47:20.771Z,17.75
2023-04-17T12:50:23.803Z,17.92
2023-04-17T12:53:26.614Z,17.63
2023-04-17T12:56:29.590Z,16.89
2023-04-17T12:59:32.570Z,16.57
2023-04-17T13:02:36.454Z,16.78
2023-04-17T13:05:39.858Z,16.71
2023-04-17T13:08:42.819Z,16.56
2023-04-17T13:11:45.663Z,16.29
2023-04-17T13:14:48.550Z,16.75
2023-04-17T13:17:51.271Z,17.22
2023-04-17T13:20:54.084Z,16.84
2023-04-17T13:23:56.889Z,17.10
2023-04-17T13:26:59.848Z,17.11
2023-04-17T13:30:02.741Z,17.26
2023-04-17T13:33:06.050Z,17.35
2023-04-17T13:36:08.791Z,16.59
2023-04-17T13:39:12.031Z,16.88
2023-04-17T13:42:19.611Z,16.62
2023-04-17T13:45:22.654Z,16.44
2023-04-17T13:48:25.540Z,17.12
2023-04-17T13:51:28.662Z,16.72
2023-04-17T13:54:31.800Z,16.34
2023-04-17T13:57:36.362Z,16.62
2023-04-17T14:00:39.109Z,16.66
2023-04-17T14:03:44.596Z,16.76
2023-04-17T14:06:50.752Z,16.88
2023-04-17T14:09:53.462Z,16.52
2023-04-17T14:12:56.321Z,16.50
2023-04-17T14:15:59.299Z,16.42
2023-04-17T14:19:12.579Z,16.53
2023-04-17T14:22:17.077Z,16.51
2023-04-17T14:25:19.970Z,16.43
2023-04-17T14:28:24.104Z,16.59
2023-04-17T14:31:26.985Z,16.46
2023-04-17T14:34:30.150Z,16.29
2023-04-17T14:37:34.110Z,16.58
2023-04-17T14:40:37.027Z,16.07
2023-04-17T14:43:39.872Z,15.87
2023-04-17T14:46:42.796Z,16.35
2023-04-17T14:49:45.737Z,16.09
2023-04-17T14:52:48.782Z,16.28
2023-04-17T14:55:52.082Z,16.23
2023-04-17T14:58:55.110Z,16.36
2023-04-17T15:01:58.008Z,15.97
2023-04-17T15:05:01.211Z,15.59
2023-04-17T15:08:04.244Z,15.34
2023-04-17T15:11:07.542Z,15.06
2023-04-17T15:14:11.327Z,14.51
2023-04-17T15:17:14.190Z,14.84
2023-04-17T15:20:16.974Z,15.11
2023-04-17T15:23:19.852Z,14.77
2023-04-17T15:26:23.202Z,14.77
2023-04-17T15:29:25.960Z,15.13
2023-04-17T15:32:28.858Z,15.16
2023-04-17T15:35:31.869Z,15.13
2023-04-17T15:38:34.919Z,14.90
2023-04-17T15:41:40.440Z,14.53
2023-04-17T15:44:43.340Z,14.31
2023-04-17T15:47:46.291Z,14.33
2023-04-17T15:50:49.226Z,14.20
2023-04-17T15:53:52.181Z,13.98
2023-04-17T15:56:56.507Z,14.03
2023-04-17T15:59:59.642Z,14.11
2023-04-17T16:03:02.684Z,14.33
2023-04-17T16:06:06.213Z,14.22
2023-04-17T16:09:10.203Z,14.34
2023-04-17T16:12:13.316Z,14.22
2023-04-17T16:15:17.547Z,14.05
2023-04-17T16:18:20.825Z,14.10
2023-04-17T16:21:23.585Z,14.08
2023-04-17T16:24:26.913Z,13.90
2023-04-17T16:27:30.885Z,13.94
2023-04-17T16:30:33.930Z,13.84
2023-04-17T16:33:36.819Z,13.64
2023-04-17T16:36:39.557Z,13.45
2023-04-17T16:39:42.333Z,13.42
2023-04-17T16:43:50.869Z,13.38
2023-04-17T16:47:09.940Z,13.25
2023-04-17T16:50:15.746Z,13.20
2023-04-17T16:53:18.653Z,13.16
2023-04-17T16:56:21.890Z,13.03
2023-04-17T16:59:24.808Z,13.16
2023-04-17T17:02:27.906Z,13.16
2023-04-17T17:05:30.749Z,12.90
2023-04-17T17:08:33.650Z,12.94
2023-04-17T17:11:36.652Z,12.90
2023-04-17T17:14:39.524Z,12.88
2023-04-17T17:17:43.451Z,12.84
2023-04-17T17:20:54.510Z,12.61
2023-04-17T17:23:57.490Z,12.82
2023-04-17T17:27:00.333Z,12.55
2023-04-17T17:30:04.462Z,12.34
2023-04-17T17:33:07.324Z,12.31
2023-04-17T17:36:12.074Z,12.26
2023-04-17T17:39:15.090Z,12.19
2023-04-17T17:42:18.248Z,12.02
2023-04-17T17:45:20.987Z,12.01
2023-04-17T17:48:23.913Z,12.19
2023-04-17T17:51:27.284Z,11.91
2023-04-17T17:54:30.087Z,12.00
2023-04-17T17:57:38.691Z,11.94
2023-04-17T18:00:51.305Z,11.85
2023-04-17T18:03:54.361Z,11.89
2023-04-17T18:06:57.521Z,11.76
2023-04-17T18:10:00.621Z,11.68
2023-04-17T18:13:03.946Z,11.89
2023-04-17T18:16:07.292Z,11.81
2023-04-17T18:19:10.324Z,11.64
2023-04-17T18:22:13.101Z,11.57
2023-04-17T18:25:16.313Z,11.53
2023-04-17T18:28:19.184Z,11.40
2023-04-17T18:31:23.402Z,11.32
2023-04-17T18:34:26.270Z,11.27
2023-04-17T18:37:29.684Z,11.28
2023-04-17T18:40:32.414Z,11.24
2023-04-17T18:43:35.408Z,11.17
2023-04-17T18:46:38.265Z,11.19
2023-04-17T18:49:41.201Z,11.19
2023-04-17T18:52:49.413Z,11.09
2023-04-17T18:55:56.054Z,11.07
2023-04-17T18:58:58.989Z,10.99
2023-04-17T19:02:01.944Z,11.08
2023-04-17T19:05:05.199Z,10.96
2023-04-17T19:08:08.057Z,10.94
2023-04-17T19:11:11.467Z,10.90
2023-04-17T19:14:14.454Z,10.85
2023-04-17T19:17:17.544Z,10.83
2023-04-17T19:20:21.816Z,10.78
2023-04-17T19:23:24.611Z,10.85
2023-04-17T19:26:29.933Z,10.83
2023-04-17T19:29:32.829Z,10.76
2023-04-17T19:32:35.864Z,10.70
2023-04-17T19:35:39.141Z,10.72
2023-04-17T19:38:42.101Z,10.73
2023-04-17T19:41:52.289Z,10.71
2023-04-17T19:44:55.223Z,10.78
2023-04-17T19:47:58.152Z,10.64
2023-04-17T19:51:03.481Z,10.63
2023-04-17T19:54:06.280Z,10.66
2023-04-17T19:57:09.219Z,10.72
2023-04-17T20:00:12.998Z,10.69
2023-04-17T20:03:15.871Z,10.66
2023-04-17T20:06:19.754Z,10.73
2023-04-17T20:09:22.606Z,10.53
2023-04-17T20:12:25.852Z,10.68
2023-04-17T20:15:29.584Z,10.69
2023-04-17T20:18:34.092Z,10.59
2023-04-17T20:21:37.209Z,10.59
2023-04-17T20:24:40.091Z,10.49
2023-04-17T20:27:42.847Z,10.51
2023-04-17T20:30:45.620Z,10.59
2023-04-17T20:33:48.531Z,10.51
2023-04-17T20:36:51.715Z,10.33
2023-04-17T20:39:54.473Z,10.38
2023-04-17T20:42:57.357Z,10.37
2023-04-17T20:46:00.404Z,10.38
2023-04-17T20:49:03.323Z,10.34
2023-04-17T20:52:06.050Z,10.34
2023-04-17T20:55:09.570Z,10.38
2023-04-17T20:58:12.281Z,10.32
2023-04-17T21:01:16.263Z,10.26
2023-04-17T21:04:19.180Z,10.30
2023-04-17T21:07:21.904Z,10.22
2023-04-17T21:10:24.629Z,10.08
2023-04-17T21:13:27.399Z,10.18
2023-04-17T21:16:31.552Z,10.25
2023-04-17T21:19:40.599Z,10.27
2023-04-17T21:22:43.391Z,10.31
2023-04-17T21:25:46.073Z,10.40
2023-04-17T21:28:49.061Z,10.36
2023-04-17T21:31:51.916Z,10.43
2023-04-17T21:34:54.621Z,10.50
2023-04-17T21:37:57.317Z,10.47
2023-04-17T21:41:00.105Z,10.62
2023-04-17T21:44:04.058Z,10.66
2023-04-17T21:47:06.744Z,10.66
2023-04-17T21:50:09.935Z,10.70
2023-04-17T21:53:12.711Z,10.81
2023-04-17T21:56:15.726Z,10.85
2023-04-17T21:59:18.520Z,10.83
2023-04-17T22:02:21.298Z,10.67
2023-04-17T22:05:24.040Z,10.64
2023-04-17T22:08:26.705Z,10.63
2023-04-17T22:11:29.434Z,10.67
2023-04-17T22:14:32.246Z,10.74
2023-04-17T22:17:35.299Z,10.75
2023-04-17T22:20:38.110Z,10.50
2023-04-17T22:23:40.761Z,10.53
2023-04-17T22:26:43.504Z,10.62
2023-04-17T22:29:46.314Z,10.65
2023-04-17T22:32:49.186Z,10.66
2023-04-17T22:35:52.097Z,10.51
2023-04-17T22:38:54.747Z,10.54
2023-04-17T22:41:58.234Z,10.49
2023-04-17T22:45:03.247Z,10.57
2023-04-17T22:48:06.620Z,10.50
2023-04-17T22:51:10.052Z,10.38
2023-04-17T22:54:22.168Z,10.37
2023-04-17T22:57:26.424Z,10.43
2023-04-17T23:00:30.474Z,10.41
2023-04-17T23:03:34.566Z,10.42
2023-04-17T23:06:37.318Z,10.40
2023-04-17T23:09:40.148Z,10.35
2023-04-17T23:12:43.005Z,10.34
2023-04-17T23:15:45.734Z,10.34
2023-04-17T23:18:48.535Z,10.27
2023-04-17T23:21:51.151Z,10.18
2023-04-17T23:24:53.819Z,10.29
2023-04-17T23:27:56.594Z,10.24
2023-04-17T23:30:59.465Z,10.28
2023-04-17T23:34:02.368Z,10.25
2023-04-17T23:37:05.125Z,10.13
2023-04-17T23:40:09.107Z,10.09
2023-04-17T23:43:11.740Z,10.11
2023-04-17T23:46:14.505Z,10.12
2023-04-17T23:49:17.103Z,10.11
2023-04-17T23:52:19.921Z,10.16
2023-04-17T23:55:23.458Z,10.16
2023-04-17T23:58:26.115Z,10.14
